Hansa Limburg — A8IH6 — position and weather

sailwx.info

Track history (hours):
 
Tides and Currents Weather Stations Pressure Air Temp Water Temp Dewpoint Dewpoint Depression Visibility Wind Speed Wind Dir Waves Ship Positions

Hansa Limburg

Last reported at 2016-May-14 20:06 UTC. Time now 2016-May-26 10:42 UTC.
Position N 55°24' E 019°28'.
Warning: this ship's position is 11 days out of date.

Length 175.5 m; beam 27.4 m; draft 10.9 m.

Type: Ship (hazmat cat A). MMSI: 636090980.

Date/timePositionNaut miles runAvg speedWind from/ knotsBaromVisibWave heightAir tempDewpointWater temp
2016-May-14 20:06N 55°24' E 019°28'1 1.2
2016-May-14 19:33N 55°25' E 019°27'1 1.2
2016-May-14 18:31N 55°25' E 019°26'1 1.2
2016-May-14 17:26N 55°26' E 019°24'1 1.1
2016-May-14 16:28N 55°26' E 019°22'1 1.1
2016-May-14 15:32N 55°27' E 019°20'1 1.2
2016-May-14 14:33N 55°27' E 019°18'1 1.0
2016-May-14 13:33N 55°27' E 019°17'1 1.0
2016-May-14 12:33N 55°28' E 019°15'1 0.9
2016-May-14 11:33N 55°28' E 019°13'1 0.8
2016-May-14 10:33N 55°28' E 019°12'1 0.7
2016-May-14 09:27N 55°28' E 019°11'0 0.5
2016-May-14 08:33N 55°28' E 019°10'0 0.1
2016-May-14 07:30N 55°28' E 019°10'1 0.4
2016-May-14 04:29N 55°29' E 019°11'1 0.6
2016-May-14 03:31N 55°29' E 019°11'5 3.9
2016-May-14 02:12N 55°25' E 019°07'710.8
2016-May-14 01:33N 55°19' E 018°60'1110.8
2016-May-14 00:33N 55°13' E 018°45'1311.1
2016-May-13 23:23N 55°08' E 018°24'1211.1
2016-May-13 22:21N 55°03' E 018°05'911.0
2016-May-13 21:33N 54°60' E 017°51'1311.3
2016-May-13 20:25N 54°54' E 017°31'1011.2
2016-May-13 19:33N 54°52' E 017°14'1611.1
2016-May-13 18:07N 54°48' E 016°48'1811.1
2016-May-13 16:27N 54°45' E 016°16'1011.1
2016-May-13 15:32N 54°44' E 015°59'1110.9
2016-May-13 14:33N 54°42' E 015°40'1110.9
2016-May-13 13:33N 54°41' E 015°22'1413.8
2016-May-13 12:33N 54°39' E 014°58'2120.9
2016-May-13 11:33N 54°36' E 014°22'2020.1
2016-May-13 10:33N 54°42' E 013°49'1818.5
2016-May-13 09:33N 54°45' E 013°17'1716.8
2016-May-13 08:33N 54°45' E 012°48'1414.1
2016-May-13 07:33N 54°38' E 012°27'1313.2
2016-May-13 06:34N 54°27' E 012°13'1111.2
2016-May-13 05:34N 54°25' E 011°54'1212.1
2016-May-13 04:34N 54°28' E 011°34'1212.0
2016-May-13 03:34N 54°33' E 011°15'1110.6
2016-May-13 02:34N 54°36' E 010°58'10 9.6
2016-May-13 01:34N 54°43' E 010°46'1110.9
2016-May-13 00:33N 54°53' E 010°51'1110.7
2016-May-12 23:33N 55°03' E 010°60'1010.2
2016-May-12 22:33N 55°12' E 011°06'1111.0
2016-May-12 21:33N 55°23' E 011°01'2311.0
2016-May-12 19:29N 55°45' E 010°48'2311.5
2016-May-12 17:31N 56°05' E 011°07'1212.2
2016-May-12 16:34N 56°14' E 011°19'1512.7
2016-May-12 15:25N 56°27' E 011°32'1113.1
2016-May-12 14:33N 56°36' E 011°42'1212.1
2016-May-12 13:33N 56°48' E 011°50'1313.2
2016-May-12 12:33N 57°00' E 011°42'1312.9
2016-May-12 11:33N 57°12' E 011°34'1312.6
2016-May-12 10:33N 57°24' E 011°26'1313.1
2016-May-12 09:33N 57°34' E 011°10'1313.2
2016-May-12 08:34N 57°43' E 010°52'1111.2
2016-May-12 07:34N 57°51' E 010°37'1110.6
2016-May-12 06:33N 57°52' E 010°17'1111.4
2016-May-12 05:33N 57°52' E 009°56'1211.7
2016-May-12 04:34N 57°46' E 009°37'21010.4
2016-May-11 08:24N 54°56' E 005°54'1211.7
2016-May-11 07:22N 54°46' E 005°45'3211.5
2016-May-11 04:32N 54°17' E 005°18'1111.4
2016-May-11 03:33N 54°07' E 005°09'1211.8
2016-May-11 02:34N 53°56' E 005°03'1211.9
2016-May-11 01:33N 53°45' E 004°56'1211.8
2016-May-11 00:33N 53°34' E 004°48'1212.0
2016-May-10 23:33N 53°23' E 004°41'1212.4
2016-May-10 22:33N 53°11' E 004°33'1312.8
2016-May-10 21:32N 52°60' E 004°22'1313.2
2016-May-10 20:33N 52°49' E 004°11'1513.7
2016-May-10 19:27N 52°37' E 003°55'1213.0
2016-May-10 18:33N 52°28' E 003°42'1312.6
2016-May-10 17:31N 52°17' E 003°32'1413.8
2016-May-10 16:30N 52°03' E 003°28'1614.3
2016-May-10 15:22N 51°48' E 003°18'1213.2
2016-May-10 14:27N 51°37' E 003°22'1213.6
2016-May-10 13:33N 51°27' E 003°34'1313.5
2016-May-10 12:33N 51°22' E 003°54'1110.4
2016-May-10 11:33N 51°23' E 004°10'5 4.8
2016-May-10 10:33N 51°21' E 004°16'0 0.0
2016-May-10 09:33N 51°21' E 004°16'0 0.0
2016-May-10 08:33N 51°20' E 004°16'0 0.0
2016-May-10 07:28N 51°20' E 004°16'0 0.0
2016-May-10 06:33N 51°21' E 004°16'0 0.0
2016-May-10 05:33N 51°20' E 004°16'0 0.0
2016-May-10 04:34N 51°21' E 004°16'0 0.0
2016-May-10 03:33N 51°21' E 004°16'0 0.0
2016-May-10 02:33N 51°20' E 004°16'0 0.0
2016-May-10 01:33N 51°21' E 004°16'0 0.0
2016-May-10 00:33N 51°20' E 004°16'0 0.0
2016-May-09 23:33N 51°20' E 004°16'0 0.0
2016-May-09 22:34N 51°20' E 004°16'0 0.0
2016-May-09 21:33N 51°20' E 004°16'0 0.0
2016-May-09 20:33N 51°20' E 004°16'0 0.0
2016-May-09 19:34N 51°20' E 004°16'5 4.7
2016-May-09 18:34N 51°24' E 004°11'8 8.0
2016-May-09 17:34N 51°26' E 003°59'10 9.6
2016-May-09 16:34N 51°22' E 003°44'10 9.6
2016-May-09 15:33N 51°25' E 003°29'1818.4
2016-May-09 14:33N 51°24' E 002°60'1414.2
2016-May-09 13:33N 51°22' E 002°37'1111.2
2016-May-09 12:33N 51°19' E 002°20'1616.5
2016-May-09 11:33N 51°11' E 001°57'1515.0
2016-May-09 10:34N 51°02' E 001°38'1414.1
2016-May-09 09:34N 50°50' E 001°26'4413.1
2016-May-09 06:10N 50°24' E 000°29'711.3
2016-May-09 05:33N 50°23' E 000°18'1111.1
2016-May-09 04:34N 50°20' E 000°01'1111.1
2016-May-09 03:34N 50°17' W 000°15'1110.5
2016-May-09 02:33N 50°14' W 000°31'1110.8
2016-May-09 01:33N 50°11' W 000°47'7514.9
2016-May-08 20:33N 49°50' W 002°39'1615.7
2016-May-08 19:33N 49°44' W 003°01'1515.4
2016-May-08 18:33N 49°37' W 003°22'2015.2
2016-May-08 17:14N 49°27' W 003°49'1014.9
2016-May-08 16:33N 49°22' W 004°03'4714.9
2016-May-08 13:22N 48°59' W 005°06'1113.8
2016-May-08 12:33N 48°53' W 005°21'62314.1
2016-May-06 16:16N 39°02' W 009°51'1013.9
2016-May-06 15:33N 38°52' W 009°51'1313.5
2016-May-06 14:33N 38°38' W 009°49'1413.6
2016-May-06 13:33N 38°25' W 009°46'1413.7
2016-May-06 12:33N 38°12' W 009°42'1414.0
2016-May-06 11:33N 37°58' W 009°37'1414.2
2016-May-06 10:33N 37°44' W 009°33'  
Track history (hours):
 
Tides and Currents Weather Stations Pressure Air Temp Water Temp Dewpoint Dewpoint Depression Visibility Wind Speed Wind Dir Waves Ship Positions

Hansa Limburg

Last reported at 2016-May-14 20:06 UTC. Time now 2016-May-26 10:42 UTC.
Position N 55°24' E 019°28'.
Warning: this ship's position is 11 days out of date.

Length 175.5 m; beam 27.4 m; draft 10.9 m.

Type: Ship (hazmat cat A). MMSI: 636090980.

Date/timePositionNaut miles runAvg speedWind from/ knotsBaromVisibWave heightAir tempDewpointWater temp
2016-May-14 20:06N 55°24' E 019°28'1 1.2
2016-May-14 19:33N 55°25' E 019°27'1 1.2
2016-May-14 18:31N 55°25' E 019°26'1 1.2
2016-May-14 17:26N 55°26' E 019°24'1 1.1
2016-May-14 16:28N 55°26' E 019°22'1 1.1
2016-May-14 15:32N 55°27' E 019°20'1 1.2
2016-May-14 14:33N 55°27' E 019°18'1 1.0
2016-May-14 13:33N 55°27' E 019°17'1 1.0
2016-May-14 12:33N 55°28' E 019°15'1 0.9
2016-May-14 11:33N 55°28' E 019°13'1 0.8
2016-May-14 10:33N 55°28' E 019°12'1 0.7
2016-May-14 09:27N 55°28' E 019°11'0 0.5
2016-May-14 08:33N 55°28' E 019°10'0 0.1
2016-May-14 07:30N 55°28' E 019°10'1 0.4
2016-May-14 04:29N 55°29' E 019°11'1 0.6
2016-May-14 03:31N 55°29' E 019°11'5 3.9
2016-May-14 02:12N 55°25' E 019°07'710.8
2016-May-14 01:33N 55°19' E 018°60'1110.8
2016-May-14 00:33N 55°13' E 018°45'1311.1
2016-May-13 23:23N 55°08' E 018°24'1211.1
2016-May-13 22:21N 55°03' E 018°05'911.0
2016-May-13 21:33N 54°60' E 017°51'1311.3
2016-May-13 20:25N 54°54' E 017°31'1011.2
2016-May-13 19:33N 54°52' E 017°14'1611.1
2016-May-13 18:07N 54°48' E 016°48'1811.1
2016-May-13 16:27N 54°45' E 016°16'1011.1
2016-May-13 15:32N 54°44' E 015°59'1110.9
2016-May-13 14:33N 54°42' E 015°40'1110.9
2016-May-13 13:33N 54°41' E 015°22'1413.8
2016-May-13 12:33N 54°39' E 014°58'2120.9
2016-May-13 11:33N 54°36' E 014°22'2020.1
2016-May-13 10:33N 54°42' E 013°49'1818.5
2016-May-13 09:33N 54°45' E 013°17'1716.8
2016-May-13 08:33N 54°45' E 012°48'1414.1
2016-May-13 07:33N 54°38' E 012°27'1313.2
2016-May-13 06:34N 54°27' E 012°13'1111.2
2016-May-13 05:34N 54°25' E 011°54'1212.1
2016-May-13 04:34N 54°28' E 011°34'1212.0
2016-May-13 03:34N 54°33' E 011°15'1110.6
2016-May-13 02:34N 54°36' E 010°58'10 9.6
2016-May-13 01:34N 54°43' E 010°46'1110.9
2016-May-13 00:33N 54°53' E 010°51'1110.7
2016-May-12 23:33N 55°03' E 010°60'1010.2
2016-May-12 22:33N 55°12' E 011°06'1111.0
2016-May-12 21:33N 55°23' E 011°01'2311.0
2016-May-12 19:29N 55°45' E 010°48'2311.5
2016-May-12 17:31N 56°05' E 011°07'1212.2
2016-May-12 16:34N 56°14' E 011°19'1512.7
2016-May-12 15:25N 56°27' E 011°32'1113.1
2016-May-12 14:33N 56°36' E 011°42'1212.1
2016-May-12 13:33N 56°48' E 011°50'1313.2
2016-May-12 12:33N 57°00' E 011°42'1312.9
2016-May-12 11:33N 57°12' E 011°34'1312.6
2016-May-12 10:33N 57°24' E 011°26'1313.1
2016-May-12 09:33N 57°34' E 011°10'1313.2
2016-May-12 08:34N 57°43' E 010°52'1111.2
2016-May-12 07:34N 57°51' E 010°37'1110.6
2016-May-12 06:33N 57°52' E 010°17'1111.4
2016-May-12 05:33N 57°52' E 009°56'1211.7
2016-May-12 04:34N 57°46' E 009°37'21010.4
2016-May-11 08:24N 54°56' E 005°54'1211.7
2016-May-11 07:22N 54°46' E 005°45'3211.5
2016-May-11 04:32N 54°17' E 005°18'1111.4
2016-May-11 03:33N 54°07' E 005°09'1211.8
2016-May-11 02:34N 53°56' E 005°03'1211.9
2016-May-11 01:33N 53°45' E 004°56'1211.8
2016-May-11 00:33N 53°34' E 004°48'1212.0
2016-May-10 23:33N 53°23' E 004°41'1212.4
2016-May-10 22:33N 53°11' E 004°33'1312.8
2016-May-10 21:32N 52°60' E 004°22'1313.2
2016-May-10 20:33N 52°49' E 004°11'1513.7
2016-May-10 19:27N 52°37' E 003°55'1213.0
2016-May-10 18:33N 52°28' E 003°42'1312.6
2016-May-10 17:31N 52°17' E 003°32'1413.8
2016-May-10 16:30N 52°03' E 003°28'1614.3
2016-May-10 15:22N 51°48' E 003°18'1213.2
2016-May-10 14:27N 51°37' E 003°22'1213.6
2016-May-10 13:33N 51°27' E 003°34'1313.5
2016-May-10 12:33N 51°22' E 003°54'1110.4
2016-May-10 11:33N 51°23' E 004°10'5 4.8
2016-May-10 10:33N 51°21' E 004°16'0 0.0
2016-May-10 09:33N 51°21' E 004°16'0 0.0
2016-May-10 08:33N 51°20' E 004°16'0 0.0
2016-May-10 07:28N 51°20' E 004°16'0 0.0
2016-May-10 06:33N 51°21' E 004°16'0 0.0
2016-May-10 05:33N 51°20' E 004°16'0 0.0
2016-May-10 04:34N 51°21' E 004°16'0 0.0
2016-May-10 03:33N 51°21' E 004°16'0 0.0
2016-May-10 02:33N 51°20' E 004°16'0 0.0
2016-May-10 01:33N 51°21' E 004°16'0 0.0
2016-May-10 00:33N 51°20' E 004°16'0 0.0
2016-May-09 23:33N 51°20' E 004°16'0 0.0
2016-May-09 22:34N 51°20' E 004°16'0 0.0
2016-May-09 21:33N 51°20' E 004°16'0 0.0
2016-May-09 20:33N 51°20' E 004°16'0 0.0
2016-May-09 19:34N 51°20' E 004°16'5 4.7
2016-May-09 18:34N 51°24' E 004°11'8 8.0
2016-May-09 17:34N 51°26' E 003°59'10 9.6
2016-May-09 16:34N 51°22' E 003°44'10 9.6
2016-May-09 15:33N 51°25' E 003°29'1818.4
2016-May-09 14:33N 51°24' E 002°60'1414.2
2016-May-09 13:33N 51°22' E 002°37'1111.2
2016-May-09 12:33N 51°19' E 002°20'1616.5
2016-May-09 11:33N 51°11' E 001°57'1515.0
2016-May-09 10:34N 51°02' E 001°38'1414.1
2016-May-09 09:34N 50°50' E 001°26'4413.1
2016-May-09 06:10N 50°24' E 000°29'711.3
2016-May-09 05:33N 50°23' E 000°18'1111.1
2016-May-09 04:34N 50°20' E 000°01'1111.1
2016-May-09 03:34N 50°17' W 000°15'1110.5
2016-May-09 02:33N 50°14' W 000°31'1110.8
2016-May-09 01:33N 50°11' W 000°47'7514.9
2016-May-08 20:33N 49°50' W 002°39'1615.7
2016-May-08 19:33N 49°44' W 003°01'1515.4
2016-May-08 18:33N 49°37' W 003°22'2015.2
2016-May-08 17:14N 49°27' W 003°49'1014.9
2016-May-08 16:33N 49°22' W 004°03'4714.9
2016-May-08 13:22N 48°59' W 005°06'1113.8
2016-May-08 12:33N 48°53' W 005°21'62314.1
2016-May-06 16:16N 39°02' W 009°51'1013.9
2016-May-06 15:33N 38°52' W 009°51'1313.5
2016-May-06 14:33N 38°38' W 009°49'1413.6
2016-May-06 13:33N 38°25' W 009°46'1413.7
2016-May-06 12:33N 38°12' W 009°42'1414.0
2016-May-06 11:33N 37°58' W 009°37'1414.2
2016-May-06 10:33N 37°44' W 009°33'  

Dump ship's entire track history